Tiempo atmosférico en la estación meteorológica de Ejea De Los Caballeros, Zaragoza (321 m.)



Fecha
DESCASC
Temp. máxima en grados centígrados (hora)
DESCASC
Temp. mínima en grados centígrados (hora)
DESCASC
Temp. media en grados centígrados
DESCASC
Racha de viento máxima en m/sg (hora)
DESCASC
Velocidad máxima media en intervalos de 10 minutos(hora)
DESCASC
Precipitaciones diarias en mm
DESCASC
Precipitaciones de 00:00 a 06:00 en mm
DESCASC
Precipitaciones de 06:00 a 12:00 en mm
DESCASC
Precipitaciones de 12:00 a 18:00 en mm
DESCASC
Precipitaciones de 18:00 a 24:00 en mm
DESCASC
19-04-2018 25 (16:50) 10.2 (07:30) 17.6 7.22 (15:40) 2.5 (15:40) 0 0 0 0 0
18-04-2018 25.9 (15:40) 9.6 (07:10) 17.8 6.67 (17:20) 2.5 (17:20) 0 0 0 0 0
17-04-2018 22.6 (17:20) 4.7 (07:40) 13.7 4.44 (14:30) 1.67 (13:30) 0 0 0 0 0
16-04-2018 17.6 (17:00) 9.2 (10:10) 13.4 8.89 (10:10) 3.33 (10:00) 14.8 12.4 2.4 0 0
15-04-2018 20.4 (17:50) 6.7 (00:00) 13.5 4.44 (20:40) 1.67 (16:10) 0 0 0 0 0
14-04-2018 19.3 (17:30) 4.8 (00:00) 12 3.89 (18:20) 1.67 (18:30) 0 0 0 0 0
13-04-2018 15.9 (17:20) 8.3 (00:00) 12.1 7.78 (15:20) 3.06 (14:40) 4.8 1.2 3.6 0 0
12-04-2018 16.5 (16:50) 5.3 (00:00) 10.9 7.22 (11:40) 2.78 (10:50) 0.4 0 0.4 0 0
11-04-2018 8.2 (00:00) 4.9 (00:00) 6.5 7.22 (08:30) 2.78 (08:40) 60.4 18 11.8 14.4 16.2
10-04-2018 8.9 (16:50) 4.6 (00:00) 6.7 9.72 (12:30) 3.33 (11:40) 15.2 0.6 2.8 8 3.8
09-04-2018 14.7 (16:30) 3.4 (00:00) 9 6.67 (17:20) 2.78 (17:20) 1.4 0 0 1.2 0.2
08-04-2018 15 (17:20) 7.9 (00:00) 11.5 7.5 (16:10) 3.06 (16:10) 14.2 12.2 1.8 0 0.2
07-04-2018 16.9 (13:30) 8.3 (00:00) 12.6 11.11 (01:20) 3.61 (01:30) 26.8 3 0 0 23.8
06-04-2018 21 (15:30) 8.3 (00:00) 14.7 11.94 (15:10) 4.44 (21:40) 1.2 0 0 0.6 0.6
05-04-2018 20.7 (16:20) 5.8 (00:00) 13.3 6.67 (18:50) 2.22 (18:00) 0 0 0 0 0
04-04-2018 18.4 (15:00) 8.7 (00:00) 13.5 10.28 (15:10) 5.28 (12:10) 0.8 0 0 0.2 0.6
03-04-2018 21.1 (17:20) 9 (00:00) 15.1 10 (14:00) 4.72 (14:00) 0.8 0.8 0 0 0
02-04-2018 17.9 (17:50) 8.2 (00:00) 13 11.11 (15:10) 4.17 (11:50) 0 0 0 0 0
01-04-2018 19.3 (16:20) -0.1 (00:00) 9.6 6.94 (23:59) 2.5 (23:10) 0 0 0 0 0
31-03-2018 13.8 (16:00) 5 (00:00) 9.4 13.06 (17:40) 6.11 (13:10) 0.4 0.4 0 0 0
30-03-2018 15.4 (17:30) 6.7 (00:00) 11 8.33 (19:00) 3.61 (19:30) 0 0 0 0 0
29-03-2018 18 (16:50) 6.6 (00:00) 12.3 5.83 (00:50) 2.22 (13:30) 0 0 0 0 0
28-03-2018 21 (16:40) 4.1 (00:00) 12.5 4.44 (14:10) 1.94 (12:30) 0 0 0 0 0
27-03-2018 17.7 (18:20) 6.4 (00:00) 12.1 9.17 (13:50) 3.89 (13:20) 0 0 0 0 0
26-03-2018 14.6 (16:00) 6.2 (00:00) 10.4 12.22 (12:50) 5 (09:30) 0 0 0 0 0
25-03-2018 13.6 (16:40) 3.9 (00:00) 8.8 8.61 (17:50) 3.33 (12:20) 0 0 0 0 0
24-03-2018 13.7 (15:40) 4.3 (00:00) 9 12.5 (02:50) 4.44 (02:50) 7.8 7.8 0 0 0
23-03-2018 15 (13:50) 1.2 (00:00) 8.1 9.72 (11:20) 3.61 (11:40) 1.6 0 0 0 1.6

Gráficas

Temp. máximas Temp. mínimas Temp. medias Precipitaciones Rachas de viento máximas Velocidades máximas media en intervalos de 10 minutos

Datos horarios

Fecha y hora oficial Temperatura (ºC) Velocidad del viento (km/h) Dirección del viento Racha (km/h) Dirección de racha Precipitación (mm) Presión (hPa) Tendencia (hPa) Humedad (%)
2018-04-21 23:00:00 15.7 3 Este 10 Nordeste 0 -- -- 75
2018-04-21 22:00:00 16.4 4 Nordeste 12 Este 0 -- -- 76
2018-04-21 21:00:00 17.8 5 Nordeste 10 Este 0 -- -- 72
2018-04-21 20:00:00 20.1 3 Este 9 Este 0 -- -- 58
2018-04-21 19:00:00 21.3 3 Este 15 Este 0 -- -- 53
2018-04-21 18:00:00 22.5 6 Este 17 Este 0 -- -- 50
2018-04-21 17:00:00 23.2 7 Este 23 Este 0 -- -- 51
2018-04-21 16:00:00 24.7 7 Este 22 Este 0 -- -- 48
2018-04-21 15:00:00 24.7 6 Este 18 Este 0 -- -- 43
2018-04-21 14:00:00 24.1 8 Sudeste 21 Sudeste 0 -- -- 44
2018-04-21 13:00:00 21.9 5 Sudoeste 15 Sudoeste 0 -- -- 59
2018-04-21 12:00:00 21 5 Noroeste 14 Sudeste 0 -- -- 60
2018-04-21 11:00:00 19.1 4 Sudeste 13 Sudeste 0 -- -- 64
2018-04-21 10:00:00 15.4 4 Este 13 Este 0 -- -- 72
2018-04-21 09:00:00 10.7 0 Calma 9 Nordeste 0 -- -- 85
2018-04-21 08:00:00 9.7 4 Nordeste 8 Nordeste 0 -- -- 88
2018-04-21 07:00:00 9.7 2 Nordeste 6 Nordeste 0 -- -- 87
2018-04-21 06:00:00 10.8 0 Calma 7 Este 0 -- -- 84
2018-04-21 05:00:00 11.2 0 Calma 15 Nordeste 0 -- -- 82
2018-04-21 04:00:00 11.4 5 Este 19 Nordeste 0 -- -- 82
2018-04-21 03:00:00 11.3 4 Este 14 Nordeste 0 -- -- 83
2018-04-21 02:00:00 11.8 3 Nordeste 13 Este 0 -- -- 82
2018-04-21 01:00:00 12.3 4 Nordeste 12 Este 0 -- -- 81
2018-04-21 00:00:00 12.7 5 Nordeste 13 Este 0 -- -- 79
2018-04-20 23:00:00 14.2 2 Nordeste 13 Nordeste 0 -- -- 74
2018-04-20 22:00:00 16.2 3 Nordeste 8 Este 0 -- -- 66
2018-04-20 21:00:00 18.9 3 Nordeste 15 Este 0 -- -- 54
2018-04-20 20:00:00 20.8 6 Este 20 Este 0 -- -- 53
2018-04-20 19:00:00 22.1 8 Este 22 Este 0 -- -- 51
2018-04-20 18:00:00 23.1 9 Este 24 Nordeste 0 -- -- 47
2018-04-20 17:00:00 23.6 7 Este 24 Este 0 -- -- 47
2018-04-20 16:00:00 24.1 8 Este 26 Sudeste 0 -- -- 45
2018-04-20 15:00:00 23.9 9 Este 24 Este 0 -- -- 44
2018-04-20 14:00:00 23.1 7 Este 19 Sudeste 0 -- -- 51
2018-04-20 13:00:00 21.5 6 Sur 19 Este 0 -- -- 56
2018-04-20 12:00:00 20.8 5 Este 16 Sudeste 0 -- -- 57
2018-04-20 11:00:00 19 3 Sudeste 16 Nordeste 0 -- -- 65
2018-04-20 10:00:00 15.2 3 Nordeste 10 Nordeste 0 -- -- 74
2018-04-20 09:00:00 12.1 2 Nordeste 7 Norte 0 -- -- 82
2018-04-20 08:00:00 11.2 3 Este 8 Este 0 -- -- 86
2018-04-20 07:00:00 11 3 Sur 9 Este 0 -- -- 87
2018-04-20 06:00:00 11.3 3 Nordeste 12 Nordeste 0 -- -- 84
2018-04-20 05:00:00 12.4 5 Nordeste 15 Nordeste 0 -- -- 81
2018-04-20 04:00:00 13.8 6 Este 17 Nordeste 0 -- -- 76
2018-04-20 03:00:00 14.2 4 Este 13 Nordeste 0 -- -- 74
2018-04-20 02:00:00 13.3 5 Este 15 Este 0 -- -- 81
2018-04-20 01:00:00 13.2 5 Este 16 Nordeste 0 -- -- 81
2018-04-20 00:00:00 14.2 3 Nordeste 12 Este 0 -- -- 76
2018-04-19 23:00:00 16 5 Nordeste 11 Nordeste 0 -- -- 68
2018-04-19 22:00:00 16.7 0 Calma 6 Este 0 -- -- 70
2018-04-19 21:00:00 19.4 3 Nordeste 13 Sudeste 0 -- -- 58
2018-04-19 20:00:00 21.5 4 Sudeste 21 Sudeste 0 -- -- 52
2018-04-19 19:00:00 22.8 7 Sudeste 22 Sur 0 -- -- 48
2018-04-19 18:00:00 24 6 Este 21 Sudeste 0 -- -- 42
2018-04-19 17:00:00 24.8 8 Este 23 Este 0 -- -- 40
2018-04-19 16:00:00 24.7 9 Este 26 Sur 0 -- -- 43
2018-04-19 15:00:00 24.2 8 Este 25 Este 0 -- -- 46
2018-04-19 14:00:00 23.7 7 Este 18 Nordeste 0 -- -- 48
2018-04-19 13:00:00 22.9 7 Nordeste 21 Este 0 -- -- 47
2018-04-19 12:00:00 21.9 6 Este 21 Nordeste 0 -- -- 54
2018-04-19 11:00:00 19.6 6 Este 18 Este 0 -- -- 57
2018-04-19 10:00:00 16.1 4 Este 9 Sudeste 0 -- -- 67
2018-04-19 09:00:00 11.7 0 Calma 5 Este 0 -- -- 84
2018-04-19 08:00:00 10.2 3 Nordeste 8 Nordeste 0 -- -- 86
2018-04-19 07:00:00 10.5 3 Nordeste 8 Nordeste 0 -- -- 84
2018-04-19 06:00:00 11.4 3 Nordeste 9 Nordeste 0 -- -- 82
2018-04-19 05:00:00 12.7 4 Nordeste 16 Este 0 -- -- 77
2018-04-19 04:00:00 12.9 5 Nordeste 16 Nordeste 0 -- -- 78
2018-04-19 03:00:00 13.2 4 Este 14 Nordeste 0 -- -- 78
2018-04-19 02:00:00 13.5 4 Nordeste 15 Sudeste 0 -- -- 79
2018-04-19 01:00:00 13.8 4 Nordeste 11 Nordeste 0 -- -- 81
2018-04-19 00:00:00 14.4 6 Nordeste 12 Este 0 -- -- 81
2018-04-18 23:00:00 15.7 4 Nordeste 7 Nordeste 0 -- -- 80
2018-04-18 22:00:00 17.4 5 Nordeste 10 Nordeste 0 -- -- 74
2018-04-18 21:00:00 20.1 3 Este 12 Este 0 -- -- 64
2018-04-18 20:00:00 22.7 3 Este 15 Este 0 -- -- 55
2018-04-18 19:00:00 24.1 6 Este 18 Nordeste 0 -- -- 47
2018-04-18 18:00:00 25.4 7 Este 24 Nordeste 0 -- -- 45
2018-04-18 17:00:00 25.5 8 Este 23 Nordeste 0 -- -- 43
2018-04-18 16:00:00 25.8 6 Este 19 Nordeste 0 -- -- 48
2018-04-18 15:00:00 25.1 8 Este 23 Sudeste 0 -- -- 49
2018-04-18 14:00:00 24.1 8 Este 22 Nordeste 0 -- -- 54
2018-04-18 13:00:00 22.4 3 Este 13 Sudoeste 0 -- -- 60
2018-04-18 12:00:00 19.7 7 Sudoeste 14 Sudoeste 0 -- -- 64
2018-04-18 11:00:00 18.4 4 Sudoeste 9 Oeste 0 -- -- 66
2018-04-18 10:00:00 14.8 4 Sudoeste 9 Sudoeste 0 -- -- 80
2018-04-18 09:00:00 11.3 0 Calma 8 Este 0 -- -- 89
2018-04-18 08:00:00 10 2 Nordeste 13 Este 0 -- -- 88
2018-04-18 07:00:00 9.7 5 Nordeste 8 Nordeste 0 -- -- 87
2018-04-18 06:00:00 10.1 4 Nordeste 12 Nordeste 0 -- -- 85
2018-04-18 05:00:00 10.6 3 Norte 9 Nordeste 0 -- -- 84
2018-04-18 04:00:00 10.6 6 Nordeste 12 Nordeste 0 -- -- 85
2018-04-18 03:00:00 10.1 0 Calma 10 Este 0 -- -- 87
2018-04-18 02:00:00 10.8 5 Nordeste 12 Nordeste 0 -- -- 86
2018-04-18 01:00:00 11.2 3 Este 8 Nordeste 0 -- -- 87
2018-04-18 00:00:00 12.1 3 Nordeste 6 Nordeste 0 -- -- 84
2018-04-17 23:00:00 13.6 2 Nordeste 6 Norte 0 -- -- 80
2018-04-17 22:00:00 15.5 0 Calma 3 Nordeste 0 -- -- 74
2018-04-17 21:00:00 18.5 0 Calma 4 Sudoeste 0 -- -- 63
2018-04-17 20:00:00 21.2 3 Sudoeste 7 Sur 0 -- -- 52
2018-04-17 19:00:00 21.8 3 Oeste 9 Noroeste 0 -- -- 42
2018-04-17 18:00:00 22.5 3 Sudoeste 10 Sudoeste 0 -- -- 41
2018-04-17 17:00:00 22.4 5 Oeste 13 Oeste 0 -- -- 41
2018-04-17 16:00:00 21.6 5 Oeste 13 Norte 0 -- -- 42
2018-04-17 15:00:00 20.9 4 Oeste 16 Noroeste 0 -- -- 47
2018-04-17 14:00:00 19.6 5 Oeste 13 Sudoeste 0 -- -- 49
2018-04-17 13:00:00 18.2 6 Sudoeste 13 Sudoeste 0 -- -- 64
2018-04-17 12:00:00 16.3 5 Sudoeste 11 Sudoeste 0 -- -- 70
2018-04-17 11:00:00 13.6 4 Oeste 9 Sudoeste 0 -- -- 78
2018-04-17 10:00:00 9.4 2 Sudoeste 6 Sudoeste 0 -- -- 94
2018-04-17 09:00:00 6.2 0 Calma 4 Nordeste 0 -- -- 96
2018-04-17 08:00:00 4.7 0 Calma 4 Nordeste 0 -- -- 95
2018-04-17 07:00:00 4.9 0 Calma 4 Nordeste 0 -- -- 94
2018-04-17 06:00:00 5.3 0 Calma 3 Nordeste 0 -- -- 93
2018-04-17 05:00:00 5.9 0 Calma 3 Norte 0 -- -- 92
2018-04-17 04:00:00 6.5 0 Calma 3 Nordeste 0 -- -- 92
2018-04-17 03:00:00 7.1 0 Calma 3 Nordeste 0 -- -- 91
2018-04-17 02:00:00 7.9 0 Calma 4 Sudoeste 0 -- -- 91
2018-04-17 01:00:00 8.7 0 Calma -- -- 0 -- -- 88
2018-04-17 00:00:00 9.7 0 Calma 9 Sudoeste 0 -- -- 85
2018-04-16 23:00:00 10.7 0 Calma 6 Noroeste 0 -- -- 81
2018-04-16 22:00:00 12.1 2 Oeste 15 Oeste 0 -- -- 74
2018-04-16 21:00:00 13.6 4 Oeste 21 Noroeste 0 -- -- 70
2018-04-16 20:00:00 15.3 6 Oeste 25 Noroeste 0 -- -- 65
2018-04-16 19:00:00 16.1 9 Oeste 27 Noroeste 0 -- -- 60
2018-04-16 18:00:00 17 9 Oeste 25 Oeste 0 -- -- 61
2018-04-16 17:00:00 17.6 8 Oeste 23 Oeste 0 -- -- 61
2018-04-16 16:00:00 16.5 7 Oeste 21 Oeste 0 -- -- 60
2018-04-16 15:00:00 15.5 6 Oeste 22 Oeste 0 -- -- 63
2018-04-16 14:00:00 14 6 Oeste 28 Oeste 0 -- -- 69
2018-04-16 13:00:00 12.8 6 Oeste 19 Oeste 0 -- -- 77
2018-04-16 12:00:00 10.7 6 Oeste 24 Oeste 0.2 -- -- 90
2018-04-16 11:00:00 9.5 9 Oeste 32 Noroeste 0.4 -- -- 93
2018-04-16 10:00:00 9.3 12 Oeste 28 Oeste 1 -- -- 92
2018-04-16 09:00:00 9.6 7 Oeste 20 Noroeste 0.8 -- -- 92
2018-04-16 08:00:00 9.8 7 Oeste 18 Sudoeste 0 -- -- 91
2018-04-16 07:00:00 10.1 6 Oeste 19 Oeste 0 -- -- 92
2018-04-16 06:00:00 10.2 7 Oeste 22 Oeste 1.6 -- -- 94
2018-04-16 05:00:00 10.1 7 Oeste 20 Noroeste 5.2 -- -- 92
2018-04-16 04:00:00 12.1 8 Oeste 19 Sudoeste 5 -- -- 92
2018-04-16 03:00:00 12.9 8 Norte 13 Norte 0.6 -- -- 89
2018-04-16 02:00:00 13.1 0 Calma 3 Este 0 -- -- 87
2018-04-16 01:00:00 13.5 0 Calma 5 Sudoeste 0 -- -- 85
2018-04-16 00:00:00 13.7 3 Sudoeste 7 Sudoeste 0 -- -- 83
2018-04-15 23:00:00 14.4 0 Calma 6 Norte 0 -- -- 80
2018-04-15 22:00:00 15.5 0 Calma 11 Norte 0 -- -- 74
2018-04-15 21:00:00 16.8 2 Sudoeste 16 Oeste 0 -- -- 67
2018-04-15 20:00:00 18.6 3 Oeste 8 Oeste 0 -- -- 63
2018-04-15 19:00:00 19.4 3 Oeste 13 Noroeste 0 -- -- 59
2018-04-15 18:00:00 20.3 5 Sudoeste 13 Noroeste 0 -- -- 55
2018-04-15 17:00:00 19.5 4 Oeste 15 Norte 0 -- -- 55
2018-04-15 16:00:00 20 5 Oeste 15 Oeste 0 -- -- 51
2018-04-15 15:00:00 19.4 4 Oeste 12 Oeste 0 -- -- 52
2018-04-15 14:00:00 18.3 3 Noroeste 10 Sudoeste 0 -- -- 53
2018-04-15 13:00:00 16.2 3 Oeste 9 Sudoeste 0 -- -- 64
2018-04-15 12:00:00 13.8 2 Oeste 6 Sudoeste 0 -- -- 74
2018-04-15 11:00:00 12.4 3 Sudoeste 6 Sudeste 0 -- -- 80
2018-04-15 10:00:00 11.3 2 Sudeste 8 Nordeste 0 -- -- 86
2018-04-15 09:00:00 8.7 3 Norte 6 Nordeste 0 -- -- 91
2018-04-15 08:00:00 7.2 3 Nordeste 8 Sudeste 0 -- -- 93
2018-04-15 07:00:00 7.1 2 Nordeste 8 Este 0 -- -- 93
2018-04-15 06:00:00 7.5 4 Nordeste 10 Nordeste 0 -- -- 93
2018-04-15 05:00:00 7.5 3 Este 9 Este 0 -- -- 93
2018-04-15 04:00:00 7.6 3 Este 7 Nordeste 0 -- -- 93
2018-04-15 03:00:00 7.9 3 Nordeste 5 Nordeste 0 -- -- 92
2018-04-15 02:00:00 8.6 2 Nordeste 9 Nordeste 0 -- -- 90
2018-04-15 01:00:00 9.4 3 Este 6 Este 0 -- -- 89
2018-04-15 00:00:00 10 3 Este 11 Nordeste 0 -- -- 88
2018-04-14 23:00:00 11 5 Nordeste 11 Nordeste 0 -- -- 82
2018-04-14 22:00:00 12.6 0 Calma 4 Nordeste 0 -- -- 75
2018-04-14 21:00:00 15.4 0 Calma 6 Sudoeste 0 -- -- 64
2018-04-14 20:00:00 17.4 3 Sudoeste 12 Sudoeste 0 -- -- 50
2018-04-14 19:00:00 17.9 6 Sudoeste 14 Sudoeste 0 -- -- 50
2018-04-14 18:00:00 19.3 4 Sur 13 Sudeste 0 -- -- 45
2018-04-14 17:00:00 19.2 3 Sudoeste 12 Sudoeste 0 -- -- 49
2018-04-14 16:00:00 18.3 5 Oeste 13 Oeste 0 -- -- 55
2018-04-14 15:00:00 17.6 4 Sudoeste 13 Sudoeste 0 -- -- 58
2018-04-14 14:00:00 16.5 3 Oeste 11 Sur 0 -- -- 60
2018-04-14 13:00:00 15.5 4 Sudoeste 13 Sudoeste 0 -- -- 64
2018-04-14 12:00:00 13.5 4 Oeste 13 Noroeste 0 -- -- 71
2018-04-14 11:00:00 11.7 4 Norte 9 Nordeste 0 -- -- 79
2018-04-14 10:00:00 8.5 4 Norte 6 Norte 0 -- -- 90
2018-04-14 09:00:00 5.8 0 Calma 3 Sudoeste 0 -- -- 96
2018-04-14 08:00:00 4.9 0 Calma 4 Nordeste 0 -- -- 94
2018-04-14 07:00:00 5.2 0 Calma 5 Oeste 0 -- -- 93
2018-04-14 06:00:00 5.8 0 Calma 8 Nordeste 0 -- -- 93
2018-04-14 05:00:00 6.3 3 Nordeste 8 Nordeste 0 -- -- 93
2018-04-14 04:00:00 7.3 3 Este 10 Este 0 -- -- 92
2018-04-14 03:00:00 8.7 3 Este 10 Nordeste 0 -- -- 90
2018-04-14 02:00:00 9.1 3 Este 8 Este 0 -- -- 90
2018-04-14 01:00:00 10.1 3 Nordeste 11 Este 0 -- -- 86
2018-04-14 00:00:00 10.6 3 Este 17 Este 0 -- -- 84
2018-04-13 23:00:00 10.9 5 Este 18 Este 0 -- -- 84
2018-04-13 22:00:00 11.6 6 Este 18 Nordeste 0 -- -- 80
2018-04-13 21:00:00 12.5 6 Este 23 Este 0 -- -- 74
2018-04-13 20:00:00 14.4 6 Este 24 Sudeste 0 -- -- 65
2018-04-13 19:00:00 15 9 Este 23 Este 0 -- -- 63
2018-04-13 18:00:00 15.7 8 Este 26 Este 0 -- -- 64
2018-04-13 17:00:00 15.7 8 Este 26 Nordeste 0 -- -- 65
2018-04-13 16:00:00 15.3 9 Este 28 Este 0 -- -- 70
2018-04-13 15:00:00 14.1 9 Este 25 Este 0 -- -- 73
2018-04-13 14:00:00 13.1 7 Este 19 Nordeste 0 -- -- 76
2018-04-13 13:00:00 12.7 6 Nordeste 18 Este 0 -- -- 77
2018-04-13 12:00:00 13.6 7 Este 22 Este 0 -- -- 81
2018-04-13 11:00:00 10.4 5 Este 16 Este 0 -- -- 92
2018-04-13 10:00:00 9.4 4 Este 12 Este 0.2 -- -- 94
2018-04-13 09:00:00 8.7 0 Calma 7 Nordeste 1 -- -- 95
2018-04-13 08:00:00 8.3 0 Calma 6 Nordeste 1.6 -- -- 94
2018-04-13 07:00:00 8.3 2 Nordeste 8 Nordeste 0.8 -- -- 93
2018-04-13 06:00:00 8.5 0 Calma 6 Nordeste 0.6 -- -- 91
2018-04-13 05:00:00 9 2 Nordeste 6 Sudeste 0.6 -- -- 88
2018-04-13 04:00:00 9.6 4 Este 13 Sur 0 -- -- 87
2018-04-13 03:00:00 9.5 4 Este 14 Este 0 -- -- 86
2018-04-13 02:00:00 9.5 4 Este 13 Nordeste 0 -- -- 85
2018-04-13 01:00:00 9.3 2 Nordeste 13 Este 0 -- -- 81
2018-04-13 00:00:00 9.3 3 Nordeste 7 Nordeste 0 -- -- 78
2018-04-12 23:00:00 10.8 0 Calma 8 Sudeste 0 -- -- 74
2018-04-12 22:00:00 12.1 2 Este 7 Este 0 -- -- 72
2018-04-12 21:00:00 13.3 0 Calma 4 Este 0 -- -- 70
2018-04-12 20:00:00 15.1 2 Este 8 Nordeste 0 -- -- 64
2018-04-12 19:00:00 16.1 3 Sudeste 8 Sudeste 0 -- -- 57
2018-04-12 18:00:00 16.3 2 Oeste 14 Norte 0 -- -- 58
2018-04-12 17:00:00 16.5 6 Norte 15 Noroeste 0 -- -- 58
2018-04-12 16:00:00 15.3 4 Oeste 17 Oeste 0 -- -- 63
2018-04-12 15:00:00 13.4 8 Oeste 22 Oeste 0 -- -- 67
2018-04-12 14:00:00 12.7 7 Oeste 20 Oeste 0 -- -- 71
2018-04-12 13:00:00 11.8 9 Oeste 24 Noroeste 0 -- -- 72
2018-04-12 12:00:00 11.8 8 Oeste 26 Oeste 0 -- -- 76
2018-04-12 11:00:00 10.8 9 Oeste 21 Oeste 0 -- -- 80
2018-04-12 10:00:00 8.9 9 Oeste 24 Oeste 0 -- -- 87
2018-04-12 09:00:00 8.2 6 Oeste 19 Noroeste 0.2 -- -- 92
2018-04-12 08:00:00 7.8 8 Oeste 18 Oeste 0.2 -- -- 94
2018-04-12 07:00:00 6.7 2 Oeste 6 Oeste 0 -- -- 96
2018-04-12 06:00:00 6.6 3 Oeste 8 Sudoeste 0 -- -- 96
2018-04-12 05:00:00 6.3 2 Oeste 6 Oeste 0 -- -- 95
2018-04-12 04:00:00 6 3 Sudoeste 14 Oeste 0 -- -- 95
2018-04-12 03:00:00 5.3 3 Sudoeste 8 Sudoeste 0 -- -- 95
2018-04-12 02:00:00 5.6 3 Norte 11 Norte 0 -- -- 92
2018-04-12 01:00:00 5.6 4 Oeste 12 Oeste 0 -- -- 94
2018-04-12 00:00:00 5.6 2 Noroeste 9 Sudoeste 0.2 -- -- 94
2018-04-11 23:00:00 5.6 3 Este 8 Oeste 1.2 -- -- 94
2018-04-11 22:00:00 5.5 0 Calma 11 Nordeste 3 -- -- 93
2018-04-11 21:00:00 5.6 4 Nordeste 12 Nordeste 4.8 -- -- 94
2018-04-11 20:00:00 5.9 5 Nordeste 12 Nordeste 3.8 -- -- 94
2018-04-11 19:00:00 6 2 Nordeste 8 Este 3.2 -- -- 93
2018-04-11 18:00:00 6.3 3 Este 12 Este 2.8 -- -- 92
2018-04-11 17:00:00 6.7 4 Este 13 Nordeste 4.2 -- -- 92
2018-04-11 16:00:00 7.2 3 Nordeste 15 Este 3 -- -- 93
2018-04-11 15:00:00 7.5 4 Este 14 Sudeste 1.2 -- -- 93
2018-04-11 14:00:00 7.9 0 Calma 7 Oeste 1.2 -- -- 94
2018-04-11 13:00:00 7.6 2 Sudoeste 6 Sudoeste 2 -- -- 95
2018-04-11 12:00:00 7.1 2 Sudoeste 8 Oeste 2.4 -- -- 94
2018-04-11 11:00:00 6.5 2 Oeste 13 Oeste 1.8 -- -- 93
2018-04-11 10:00:00 6.1 5 Oeste 20 Noroeste 1.6 -- -- 93
2018-04-11 09:00:00 5.5 8 Oeste 26 Oeste 0.2 -- -- 93
2018-04-11 08:00:00 5.3 7 Oeste 18 Noroeste 1.6 -- -- 94
2018-04-11 07:00:00 4.9 8 Oeste 21 Noroeste 4.2 -- -- 92
2018-04-11 06:00:00 5.4 3 Norte 17 Norte 6.2 -- -- 90
2018-04-11 05:00:00 6.2 3 Oeste 9 Oeste 2.6 -- -- 92
2018-04-11 04:00:00 6.7 0 Calma 5 Nordeste 2.6 -- -- 93
2018-04-11 03:00:00 6.8 2 Nordeste 15 Este 3.6 -- -- 92
2018-04-11 02:00:00 7.8 4 Este 21 Este 2 -- -- 94
2018-04-11 01:00:00 7.9 4 Este 19 Nordeste 1 -- -- 94
2018-04-11 00:00:00 8.2 8 Este 20 Este 0.4 -- -- 94
2018-04-10 23:00:00 8.1 5 Este 14 Nordeste 0.2 -- -- 94
2018-04-10 22:00:00 8.1 6 Este 19 Este 0.4 -- -- 94
2018-04-10 21:00:00 8.2 6 Este 16 Este 0.6 -- -- 91
2018-04-10 20:00:00 8.7 6 Este 17 Sudeste 0.6 -- -- 90
2018-04-10 19:00:00 8.7 7 Este 17 Este 1.6 -- -- 93
2018-04-10 18:00:00 8.8 7 Este 21 Este 1.2 -- -- 92
2018-04-10 17:00:00 8.9 7 Este 20 Este 1.2 -- -- 93
2018-04-10 16:00:00 8.7 7 Este 25 Este 1.6 -- -- 94
2018-04-10 15:00:00 8.3 8 Este 23 Este 1.8 -- -- 94
2018-04-10 14:00:00 7.8 10 Este 33 Este 1.4 -- -- 93
2018-04-10 13:00:00 7.3 10 Este 35 Este 0.8 -- -- 93
2018-04-10 12:00:00 6.8 11 Este 31 Este 1.4 -- -- 93
2018-04-10 11:00:00 6.7 10 Este 27 Este 1.2 -- -- 93
2018-04-10 10:00:00 6.6 9 Este 27 Este 0 -- -- 91
2018-04-10 09:00:00 6.2 7 Este 30 Este 0 -- -- 92
2018-04-10 08:00:00 5.9 10 Este 23 Este 0 -- -- 94
2018-04-10 07:00:00 5.9 6 Este 20 Este 0.2 -- -- 94
2018-04-10 06:00:00 5.6 6 Este 16 Este 0.2 -- -- 95
2018-04-10 05:00:00 4.7 4 Nordeste 9 Nordeste 0 -- -- 94
2018-04-10 04:00:00 5.3 0 Calma 5 Nordeste 0 -- -- 92
2018-04-10 03:00:00 6.3 0 Calma 4 Sur 0 -- -- 90
2018-04-10 02:00:00 6.6 0 Calma 9 Sudoeste 0.2 -- -- 89
2018-04-10 01:00:00 6.9 0 Calma 5 Noroeste 0.2 -- -- 88
2018-04-10 00:00:00 7.2 0 Calma 6 Nordeste 0.2 -- -- 83
2018-04-09 23:00:00 7.4 2 Oeste 11 Noroeste 0 -- -- 82
2018-04-09 22:00:00 7.9 4 Oeste 20 Sudoeste 0 -- -- 80
2018-04-09 21:00:00 9.3 4 Sudoeste 8 Sudoeste 0 -- -- 79
2018-04-09 20:00:00 10 3 Sudoeste 12 Sudoeste 0 -- -- 76
2018-04-09 19:00:00 10.3 5 Norte 18 Noroeste 0 -- -- 76
2018-04-09 18:00:00 10.2 3 Noroeste 24 Oeste 1 -- -- 76
2018-04-09 17:00:00 13.5 5 Noroeste 17 Norte 0 -- -- 59
2018-04-09 16:00:00 13.9 8 Norte 19 Norte 0 -- -- 56
2018-04-09 15:00:00 13 8 Norte 18 Nordeste 0 -- -- 61
2018-04-09 14:00:00 11.1 8 Norte 15 Norte 0 -- -- 72
2018-04-09 13:00:00 9.8 4 Norte 9 Norte 0.2 -- -- 80
2018-04-09 12:00:00 9.5 0 Calma 5 Norte 0 -- -- 78
2018-04-09 11:00:00 8.7 0 Calma 8 Norte 0 -- -- 86
2018-04-09 10:00:00 6.9 3 Sur 23 Sudeste 0 -- -- 90
2018-04-09 09:00:00 6.2 6 Nordeste 16 Nordeste 0 -- -- 86
2018-04-09 08:00:00 4.2 4 Nordeste 12 Nordeste 0 -- -- 92
2018-04-09 07:00:00 3.5 4 Nordeste 14 Nordeste 0 -- -- 92
2018-04-09 06:00:00 3.4 3 Nordeste 6 Norte 0 -- -- 94
2018-04-09 05:00:00 3.6 0 Calma 4 Nordeste 0 -- -- 92
2018-04-09 04:00:00 4.5 0 Calma 5 Este 0 -- -- 92
2018-04-09 03:00:00 5.1 0 Calma 5 Nordeste 0 -- -- 92
2018-04-09 02:00:00 6 0 Calma 2 Nordeste 0 -- -- 90
2018-04-09 01:00:00 7.1 0 Calma -- -- 0 -- -- 89
2018-04-09 00:00:00 8.2 0 Calma 7 Sudoeste 0 -- -- 86
2018-04-08 23:00:00 9.1 0 Calma 4 Oeste 0 -- -- 81
2018-04-08 22:00:00 10.3 0 Calma 5 Sudoeste 0 -- -- 78
2018-04-08 21:00:00 12.2 0 Calma 6 Oeste 0.2 -- -- 73
2018-04-08 20:00:00 14.2 0 Calma 15 Norte 0 -- -- 62
2018-04-08 19:00:00 14.6 6 Norte 22 Noroeste 0 -- -- 60
2018-04-08 18:00:00 14.3 6 Norte 22 Norte 0 -- -- 62
2018-04-08 17:00:00 14.6 6 Norte 27 Norte 0 -- -- 64
2018-04-08 16:00:00 14.1 8 Norte 19 Norte 0 -- -- 65
2018-04-08 15:00:00 12.8 6 Norte 17 Norte 0 -- -- 71
2018-04-08 14:00:00 11.7 6 Oeste 20 Noroeste 0 -- -- 75
2018-04-08 13:00:00 11 6 Noroeste 16 Norte 0 -- -- 79
2018-04-08 12:00:00 9.9 6 Norte 19 Oeste 0 -- -- 83
2018-04-08 11:00:00 8.9 5 Oeste 16 Oeste 0.2 -- -- 88
2018-04-08 10:00:00 8.3 3 Oeste 11 Oeste 0.4 -- -- 91
2018-04-08 09:00:00 8.1 4 Oeste 11 Oeste 0 -- -- 90
2018-04-08 08:00:00 8.1 3 Oeste 8 Noroeste 0.2 -- -- 94
2018-04-08 07:00:00 8.1 0 Calma 6 Norte 1 -- -- 95
2018-04-08 06:00:00 7.9 2 Oeste 10 Sudoeste 1.6 -- -- 95
2018-04-08 05:00:00 8 5 Sudoeste 12 Sudoeste 2.6 -- -- 95
2018-04-08 04:00:00 8.1 2 Oeste 13 Oeste 1.4 -- -- 95
2018-04-08 03:00:00 8.1 4 Oeste 12 Sudoeste 2.4 -- -- 95
2018-04-08 02:00:00 8.2 4 Oeste 12 Oeste 2.8 -- -- 94
2018-04-08 01:00:00 8.3 0 Calma 13 Noroeste 1.4 -- -- 94
2018-04-08 00:00:00 8.3 5 Oeste 22 Sudoeste 2.6 -- -- 93
2018-04-07 23:00:00 8.8 5 Oeste 13 Noroeste 3.8 -- -- 92
2018-04-07 22:00:00 8.9 3 Oeste 17 Oeste 4.4 -- -- 92
2018-04-07 21:00:00 9.7 6 Oeste 21 Oeste 8.8 -- -- 89
2018-04-07 20:00:00 11.9 2 Norte 12 Noroeste 2 -- -- 92
2018-04-07 19:00:00 12.5 3 Oeste 18 Sudoeste 2.2 -- -- 89
2018-04-07 18:00:00 14.6 3 Sudoeste 7 Sudoeste 0 -- -- 74
2018-04-07 17:00:00 15.1 2 Nordeste 9 Nordeste 0 -- -- 67
2018-04-07 16:00:00 15.2 3 Este 17 Este 0 -- -- 63
2018-04-07 15:00:00 16 6 Este 22 Este 0 -- -- 58
2018-04-07 14:00:00 16.6 6 Este 21 Sur 0 -- -- 54
2018-04-07 13:00:00 14.8 3 Norte 10 Norte 0 -- -- 65
2018-04-07 12:00:00 13.7 4 Sur 21 Sudoeste 0 -- -- 65
2018-04-07 11:00:00 13.1 0 Calma 23 Sur 0 -- -- 65
2018-04-07 10:00:00 13 6 Sudeste 21 Sudeste 0 -- -- 57
2018-04-07 09:00:00 10.9 0 Calma 18 Norte 0 -- -- 70
2018-04-07 08:00:00 11.4 3 Nordeste 12 Este 0 -- -- 71
2018-04-07 07:00:00 11.9 2 Este 19 Este 0 -- -- 65
2018-04-07 06:00:00 11.1 5 Este 13 Este 0 -- -- 71
2018-04-07 05:00:00 11.1 3 Nordeste 14 Norte 0 -- -- 78
2018-04-07 04:00:00 11.1 8 Norte 16 Nordeste 0 -- -- 80
2018-04-07 03:00:00 11.1 7 Este 29 Nordeste 0 -- -- 77
2018-04-07 02:00:00 10.9 11 Este 40 Nordeste 1 -- -- 82
2018-04-07 01:00:00 11.4 12 Este 30 Este 2 -- -- 83
2018-04-07 00:00:00 12.7 4 Este 33 Nordeste 0 -- -- 68
2018-04-06 23:00:00 13 11 Este 35 Nordeste 0 -- -- 67
2018-04-06 22:00:00 13.5 15 Este 38 Sudeste 0 -- -- 62
2018-04-06 21:00:00 14.1 12 Este 39 Nordeste 0.2 -- -- 64
2018-04-06 20:00:00 14.5 10 Este 33 Este 0.2 -- -- 70
2018-04-06 19:00:00 14.9 9 Este 25 Nordeste 0.2 -- -- 68
2018-04-06 18:00:00 15.6 10 Este 26 Este 0.6 -- -- 66
2018-04-06 17:00:00 18.6 8 Este 36 Este 0 -- -- 47
2018-04-06 16:00:00 20.1 15 Este 43 Nordeste 0 -- -- 42
2018-04-06 15:00:00 20 12 Este 38 Nordeste 0 -- -- 45
2018-04-06 14:00:00 20 10 Este 36 Este 0 -- -- 45
2018-04-06 13:00:00 18.1 13 Este 36 Este 0 -- -- 48
2018-04-06 12:00:00 17.1 12 Este 34 Sudeste 0 -- -- 51
2018-04-06 11:00:00 15.5 9 Este 24 Sudeste 0 -- -- 54
2018-04-06 10:00:00 12.1 8 Este 19 Nordeste 0 -- -- 65
2018-04-06 09:00:00 9.4 6 Este 25 Nordeste 0 -- -- 73
2018-04-06 08:00:00 8.7 9 Este 25 Nordeste 0 -- -- 75
2018-04-06 07:00:00 8.6 9 Este 29 Nordeste 0 -- -- 76
2018-04-06 06:00:00 9.2 8 Este 23 Sudeste 0 -- -- 74
2018-04-06 05:00:00 9.6 4 Sur 22 Este 0 -- -- 73
2018-04-06 04:00:00 10.6 8 Este 33 Nordeste 0 -- -- 70
2018-04-06 03:00:00 11.2 9 Este 29 Este 0 -- -- 69
2018-04-06 02:00:00 11.5 8 Este 24 Nordeste 0 -- -- 68
2018-04-06 01:00:00 11.7 5 Este 22 Nordeste 0 -- -- 67
2018-04-06 00:00:00 11.8 5 Este 22 Nordeste 0 -- -- 66
2018-04-05 23:00:00 11.9 7 Este 17 Este 0 -- -- 68
2018-04-05 22:00:00 12.3 5 Nordeste 14 Nordeste 0 -- -- 69
2018-04-05 21:00:00 14.5 6 Nordeste 14 Este 0 -- -- 61
2018-04-05 20:00:00 17.1 5 Este 22 Este 0 -- -- 53
2018-04-05 19:00:00 18.9 6 Este 24 Este 0 -- -- 45
2018-04-05 18:00:00 19.8 8 Este 23 Norte 0 -- -- 44
2018-04-05 17:00:00 20.3 6 Este 17 Este 0 -- -- 48
2018-04-05 16:00:00 20.3 4 Este 12 Sudoeste 0 -- -- 44
2018-04-05 15:00:00 18.9 4 Este 11 Sur 0 -- -- 45
2018-04-05 14:00:00 17.5 6 Nordeste 12 Este 0 -- -- 50
2018-04-05 13:00:00 16.8 3 Este 12 Norte 0 -- -- 53
2018-04-05 12:00:00 14.8 4 Noroeste 10 Norte 0 -- -- 64
2018-04-05 11:00:00 12.8 3 Sudoeste 9 Sudoeste 0 -- -- 74
2018-04-05 10:00:00 9 3 Sudoeste 8 Sudoeste 0 -- -- 89
2018-04-05 09:00:00 6.5 2 Nordeste 8 Sudoeste 0 -- -- 92
2018-04-05 08:00:00 6 3 Sudoeste 8 Sudoeste 0 -- -- 90
2018-04-05 07:00:00 7.2 2 Nordeste 7 Oeste 0 -- -- 85
2018-04-05 06:00:00 7.6 0 Calma 10 Oeste 0 -- -- 87
2018-04-05 05:00:00 7.8 3 Oeste 10 Sudoeste 0 -- -- 88
2018-04-05 04:00:00 8.2 3 Oeste 8 Norte 0 -- -- 84
2018-04-05 03:00:00 9.1 2 Oeste 10 Sudoeste 0 -- -- 84
2018-04-05 02:00:00 10.2 4 Oeste 10 Noroeste 0 -- -- 81
2018-04-05 01:00:00 10.8 4 Oeste 9 Oeste 0 -- -- 79
2018-04-05 00:00:00 11.3 0 Calma 8 Oeste 0.2 -- -- 84
2018-04-04 23:00:00 12.5 0 Calma 18 Norte 0.4 -- -- 71
2018-04-04 22:00:00 13.3 3 Oeste 12 Sudoeste 0 -- -- 64
2018-04-04 21:00:00 14.4 4 Sudoeste 9 Oeste 0 -- -- 62
2018-04-04 20:00:00 15.8 2 Sudoeste 11 Sudoeste 0 -- -- 65
2018-04-04 19:00:00 16.1 5 Sudoeste 17 Sudoeste 0 -- -- 62
2018-04-04 18:00:00 14.1 8 Sur 32 Sudoeste 0.2 -- -- 73
2018-04-04 17:00:00 16.9 0 Calma 15 Nordeste 0 -- -- 50
2018-04-04 16:00:00 17.1 10 Norte 37 Sudoeste 0 -- -- 48
2018-04-04 15:00:00 18.4 15 Sudoeste 35 Sudoeste 0 -- -- 43
2018-04-04 14:00:00 18.2 13 Sudoeste 35 Sudoeste 0 -- -- 42
2018-04-04 13:00:00 15.8 15 Sudoeste 36 Sudoeste 0 -- -- 46
2018-04-04 12:00:00 16.1 16 Sudoeste 36 Sudoeste 0 -- -- 46
2018-04-04 11:00:00 14.9 12 Sudoeste 25 Sudoeste 0 -- -- 49
2018-04-04 10:00:00 12.1 5 Sur 14 Sur 0 -- -- 62
2018-04-04 09:00:00 9.6 5 Sudeste 13 Sudeste 0 -- -- 71
2018-04-04 08:00:00 8.8 3 Sudoeste 9 Norte 0 -- -- 71
2018-04-04 07:00:00 9.9 0 Calma 11 Sudoeste 0 -- -- 68
2018-04-04 06:00:00 12 9 Sudoeste 26 Sudoeste 0 -- -- 56
2018-04-04 05:00:00 12.4 7 Sudoeste 18 Sudoeste 0 -- -- 58
2018-04-04 04:00:00 11.9 0 Calma 8 Oeste 0 -- -- 66
2018-04-04 03:00:00 12.8 3 Sur 11 Sudoeste 0 -- -- 60
2018-04-04 02:00:00 14.2 4 Sudoeste 18 Sudoeste 0 -- -- 54
2018-04-04 01:00:00 14.9 6 Sudoeste 15 Sur 0 -- -- 50
2018-04-04 00:00:00 15.1 5 Sudoeste 16 Sudoeste 0 -- -- 51
2018-04-03 23:00:00 16.1 3 Sur 26 Sudoeste 0 -- -- 43
2018-04-03 22:00:00 16.5 5 Sudoeste 17 Sudoeste 0 -- -- 46
2018-04-03 21:00:00 18 5 Sudoeste 17 Este 0 -- -- 37
2018-04-03 20:00:00 18.8 5 Sur 24 Sudoeste 0 -- -- 37
2018-04-03 19:00:00 20.1 9 Sudoeste 34 Sur 0 -- -- 35
2018-04-03 18:00:00 19.9 14 Sudoeste 34 Sudoeste 0 -- -- 35
2018-04-03 17:00:00 20.7 15 Sudoeste 35 Sudoeste 0 -- -- 37
2018-04-03 16:00:00 19.8 16 Sur 30 Sudeste 0 -- -- 37
2018-04-03 15:00:00 18.3 17 Sudoeste 34 Sudoeste 0 -- -- 41
2018-04-03 14:00:00 19.4 17 Sudoeste 36 Sur 0 -- -- 41
2018-04-03 13:00:00 19.3 8 Sur 27 Sur 0 -- -- 53
2018-04-03 12:00:00 17.3 6 Sur 25 Este 0 -- -- 57
2018-04-03 11:00:00 15 7 Este 24 Este 0 -- -- 66
2018-04-03 10:00:00 11.6 8 Este 21 Nordeste 0 -- -- 73
2018-04-03 09:00:00 9.2 8 Este 22 Nordeste 0 -- -- 79
2018-04-03 08:00:00 9.1 9 Este 22 Este 0 -- -- 80
2018-04-03 07:00:00 9 7 Este 21 Este 0 -- -- 83
2018-04-03 06:00:00 9.3 6 Este 18 Nordeste 0.8 -- -- 83
2018-04-03 05:00:00 10.2 7 Este 23 Este 0 -- -- 68
2018-04-03 04:00:00 10.6 8 Este 24 Nordeste 0 -- -- 65
2018-04-03 03:00:00 11 7 Este 23 Este 0 -- -- 56
2018-04-03 02:00:00 11.2 7 Este 28 Nordeste 0 -- -- 54
2018-04-03 01:00:00 11.2 9 Este 30 Este 0 -- -- 54
2018-04-03 00:00:00 11.1 7 Este 21 Este 0 -- -- 57
2018-04-02 23:00:00 11.3 6 Nordeste 25 Este 0 -- -- 60
2018-04-02 22:00:00 12.7 11 Este 26 Este 0 -- -- 53
2018-04-02 21:00:00 13.6 6 Este 27 Este 0 -- -- 53
2018-04-02 20:00:00 16.1 13 Este 31 Sudeste 0 -- -- 42
2018-04-02 19:00:00 17.5 10 Este 31 Sudeste 0 -- -- 39
2018-04-02 18:00:00 17.8 13 Este 33 Este 0 -- -- 38
2018-04-02 17:00:00 16.6 10 Este 33 Este 0 -- -- 43
2018-04-02 16:00:00 17.3 13 Este 40 Este 0 -- -- 41
2018-04-02 15:00:00 17.3 14 Este 33 Este 0 -- -- 43
2018-04-02 14:00:00 17.4 12 Este 31 Este 0 -- -- 43
2018-04-02 13:00:00 15.8 12 Este 36 Este 0 -- -- 47
2018-04-02 12:00:00 14.1 15 Este 35 Este 0 -- -- 49
2018-04-02 11:00:00 12.8 13 Este 30 Nordeste 0 -- -- 53
2018-04-02 10:00:00 10.4 7 Este 21 Sudeste 0 -- -- 61
2018-04-02 09:00:00 8.7 4 Este 14 Nordeste 0 -- -- 65
2018-04-02 08:00:00 8.2 5 Este 22 Nordeste 0 -- -- 66
2018-04-02 07:00:00 8.4 6 Este 23 Nordeste 0 -- -- 65
2018-04-02 06:00:00 8.7 9 Este 28 Nordeste 0 -- -- 64
2018-04-02 05:00:00 9.6 11 Este 34 Nordeste 0 -- -- 61
2018-04-02 04:00:00 10.1 12 Este 36 Este 0 -- -- 63
2018-04-02 03:00:00 10.6 10 Este 28 Este 0 -- -- 63
2018-04-02 02:00:00 11.2 0 Calma 24 Nordeste 0 -- -- 62
2018-04-02 01:00:00 11.7 9 Este 23 Nordeste 0 -- -- 61
2018-04-02 00:00:00 11.8 9 Este 25 Nordeste 0 -- -- 63
2018-04-01 23:00:00 12.1 8 Este 21 Este 0 -- -- 62
2018-04-01 22:00:00 12.4 8 Este 18 Nordeste 0 -- -- 64
2018-04-01 21:00:00 13.5 6 Este 18 Este 0 -- -- 60
2018-04-01 20:00:00 15.1 6 Este 18 Este 0 -- -- 54
2018-04-01 19:00:00 16.9 6 Este 21 Nordeste 0 -- -- 49
2018-04-01 18:00:00 17.7 7 Este 19 Este 0 -- -- 43
2018-04-01 17:00:00 18.6 7 Este 22 Nordeste 0 -- -- 42
2018-04-01 16:00:00 18.7 7 Sudeste 18 Nordeste 0 -- -- 42
2018-04-01 15:00:00 17.1 4 Este 14 Este 0 -- -- 44
2018-04-01 14:00:00 16.6 3 Sudeste 12 Sudeste 0 -- -- 47
2018-04-01 13:00:00 14.9 4 Nordeste 11 Nordeste 0 -- -- 49
2018-04-01 12:00:00 12.9 3 Este 7 Este 0 -- -- 51
2018-04-01 11:00:00 9 3 Oeste 8 Nordeste 0 -- -- 67
2018-04-01 10:00:00 4.2 2 Este 8 Nordeste 0 -- -- 89
2018-04-01 09:00:00 0.9 0 Calma 6 Nordeste 0 -- -- 92
2018-04-01 08:00:00 -0.1 2 Nordeste 6 Este 0 -- -- 91
2018-04-01 07:00:00 0.3 0 Calma 4 Sudoeste 0 -- -- 90
2018-04-01 06:00:00 0.8 0 Calma 4 Nordeste 0 -- -- 88
2018-04-01 05:00:00 1.5 0 Calma 3 Nordeste 0 -- -- 87
2018-04-01 04:00:00 2.1 0 Calma 4 Nordeste 0 -- -- 84
2018-04-01 03:00:00 3.3 0 Calma 5 Sudoeste 0 -- -- 82
2018-04-01 02:00:00 3.8 0 Calma 3 Sudoeste 0 -- -- 80
2018-04-01 01:00:00 4.8 0 Calma 7 Sudoeste 0 -- -- 76
2018-04-01 00:00:00 5 0 Calma 8 Sur 0 -- -- 76
2018-03-31 23:00:00 6.6 4 Sudoeste 18 Norte 0 -- -- 70
2018-03-31 22:00:00 7.9 3 Norte 15 Norte 0 -- -- 64
2018-03-31 21:00:00 9 7 Norte 20 Norte 0 -- -- 60
2018-03-31 20:00:00 10.9 10 Norte 29 Norte 0 -- -- 52
2018-03-31 19:00:00 12.2 17 Norte 35 Noroeste 0 -- -- 47
2018-03-31 18:00:00 11.4 9 Norte 47 Noroeste 0 -- -- 53
2018-03-31 17:00:00 13.4 8 Norte 30 Norte 0 -- -- 42
2018-03-31 16:00:00 13.8 9 Norte 30 Noroeste 0 -- -- 39
2018-03-31 15:00:00 12.4 11 Oeste 37 Oeste 0 -- -- 43
2018-03-31 14:00:00 12.4 14 Oeste 43 Oeste 0 -- -- 41
2018-03-31 13:00:00 11.5 17 Oeste 43 Oeste 0 -- -- 47
2018-03-31 12:00:00 10.2 18 Oeste 39 Oeste 0 -- -- 51
2018-03-31 11:00:00 9.4 15 Oeste 46 Oeste 0 -- -- 57
2018-03-31 10:00:00 8 18 Oeste 46 Oeste 0 -- -- 62
2018-03-31 09:00:00 7.1 14 Oeste 37 Sudoeste 0 -- -- 67
2018-03-31 08:00:00 5.7 2 Sudoeste 10 Oeste 0 -- -- 80
2018-03-31 07:00:00 6.4 0 Calma 11 Norte 0 -- -- 76
2018-03-31 06:00:00 6.5 3 Norte 8 Norte 0 -- -- 76
2018-03-31 05:00:00 6.7 3 Sudoeste 13 Sudoeste 0 -- -- 69
2018-03-31 04:00:00 6.6 4 Sudoeste 17 Sudoeste 0.2 -- -- 71
2018-03-31 03:00:00 7.1 5 Sudoeste 31 Sudoeste 0.2 -- -- 75
2018-03-31 02:00:00 8.6 15 Sudoeste 29 Sudoeste 0 -- -- 69
2018-03-31 01:00:00 9.6 10 Sudoeste 21 Sudoeste 0 -- -- 53
2018-03-31 00:00:00 10 3 Sur 15 Sudoeste 0 -- -- 51
2018-03-30 23:00:00 9.4 3 Sudeste 11 Sur 0 -- -- 55
2018-03-30 22:00:00 9.2 2 Sudeste 6 Sudeste 0 -- -- 52
2018-03-30 21:00:00 11.1 0 Calma 14 Oeste 0 -- -- 46
2018-03-30 20:00:00 13 9 Sudoeste 26 Sudoeste 0 -- -- 34
2018-03-30 19:00:00 14.7 12 Sudoeste 30 Sudoeste 0 -- -- 28
2018-03-30 18:00:00 15.3 12 Sudoeste 28 Sudoeste 0 -- -- 26
2018-03-30 17:00:00 14.9 2 Sudeste 14 Sudoeste 0 -- -- 36
2018-03-30 16:00:00 14.4 5 Noroeste 15 Sudoeste 0 -- -- 37
2018-03-30 15:00:00 13.3 4 Nordeste 14 Norte 0 -- -- 38
2018-03-30 14:00:00 14.1 2 Norte 14 Sudeste 0 -- -- 46
2018-03-30 13:00:00 13 4 Sur 12 Sudoeste 0 -- -- 46
2018-03-30 12:00:00 10.8 2 Oeste 14 Norte 0 -- -- 54
2018-03-30 11:00:00 10.6 3 Sudoeste 11 Sudoeste 0 -- -- 58
2018-03-30 10:00:00 7.7 3 Este 8 Sudeste 0 -- -- 72
2018-03-30 09:00:00 6.7 3 Este 10 Sudoeste 0 -- -- 80
2018-03-30 08:00:00 7.4 5 Norte 20 Oeste 0 -- -- 74
2018-03-30 07:00:00 9 4 Oeste 14 Sudoeste 0 -- -- 63
2018-03-30 06:00:00 9.6 6 Sur 23 Sudoeste 0 -- -- 58
2018-03-30 05:00:00 9.5 10 Sudoeste 23 Sudoeste 0 -- -- 60
2018-03-30 04:00:00 9.7 9 Sur 22 Sudoeste 0 -- -- 57
2018-03-30 03:00:00 9.3 2 Sur 14 Sudeste 0 -- -- 58
2018-03-30 02:00:00 9.4 5 Sur 10 Sur 0 -- -- 56
2018-03-30 01:00:00 9.3 0 Calma 5 Nordeste 0 -- -- 70
2018-03-30 00:00:00 10.9 0 Calma 4 Sudeste 0 -- -- 70
2018-03-29 23:00:00 11.5 3 Nordeste 6 Nordeste 0 -- -- 66
2018-03-29 22:00:00 12.3 0 Calma 5 Sudeste 0 -- -- 64
2018-03-29 21:00:00 14.2 0 Calma 7 Este 0 -- -- 56
2018-03-29 20:00:00 15.8 3 Este 9 Nordeste 0 -- -- 45
2018-03-29 19:00:00 16.6 2 Este 13 Nordeste 0 -- -- 44
2018-03-29 18:00:00 16.9 6 Nordeste 14 Nordeste 0 -- -- 41
2018-03-29 17:00:00 18 3 Sudoeste 14 Nordeste 0 -- -- 41
2018-03-29 16:00:00 16.8 4 Norte 14 Sudoeste 0 -- -- 41
2018-03-29 15:00:00 15.7 4 Sudoeste 11 Oeste 0 -- -- 48
2018-03-29 14:00:00 15.6 3 Oeste 15 Noroeste 0 -- -- 51
2018-03-29 13:00:00 15.3 5 Oeste 15 Noroeste 0 -- -- 57
2018-03-29 12:00:00 13.6 4 Norte 13 Noroeste 0 -- -- 65
2018-03-29 11:00:00 10.6 0 Calma 6 Sudeste 0 -- -- 74
2018-03-29 10:00:00 8.6 3 Sudoeste 7 Sudoeste 0 -- -- 83
2018-03-29 09:00:00 7.5 2 Oeste 7 Sudoeste 0 -- -- 87
2018-03-29 08:00:00 6.7 2 Sur 5 Sudoeste 0 -- -- 90
2018-03-29 07:00:00 6.9 2 Sur 8 Sur 0 -- -- 88
2018-03-29 06:00:00 7.5 2 Sudeste 12 Oeste 0 -- -- 84
2018-03-29 05:00:00 8.5 5 Oeste 15 Sudoeste 0 -- -- 81
2018-03-29 04:00:00 9.2 7 Oeste 14 Noroeste 0 -- -- 82
2018-03-29 03:00:00 10.7 4 Oeste 15 Oeste 0 -- -- 76
2018-03-29 02:00:00 11.4 6 Oeste 21 Noroeste 0 -- -- 72
2018-03-29 01:00:00 11.5 6 Oeste 21 Oeste 0 -- -- 69
2018-03-29 00:00:00 12.2 3 Noroeste 13 Noroeste 0 -- -- 70
2018-03-28 23:00:00 12.6 2 Sudoeste 13 Noroeste 0 -- -- 68
2018-03-28 22:00:00 14.2 3 Oeste 10 Oeste 0 -- -- 60
2018-03-28 21:00:00 16.1 3 Oeste 5 Oeste 0 -- -- 55
2018-03-28 20:00:00 19.2 0 Calma 10 Oeste 0 -- -- 45
2018-03-28 19:00:00 20.5 4 Oeste 9 Noroeste 0 -- -- 38
2018-03-28 18:00:00 20.5 4 Oeste 12 Oeste 0 -- -- 37
2018-03-28 17:00:00 20.9 3 Noroeste 12 Oeste 0 -- -- 37
2018-03-28 16:00:00 20.4 5 Oeste 13 Noroeste 0 -- -- 39
2018-03-28 15:00:00 20.1 4 Oeste 16 Noroeste 0 -- -- 43
2018-03-28 14:00:00 19.1 4 Oeste 11 Sudoeste 0 -- -- 46
2018-03-28 13:00:00 17.4 6 Noroeste 13 Nordeste 0 -- -- 50
2018-03-28 12:00:00 15.2 5 Norte 11 Noroeste 0 -- -- 66
2018-03-28 11:00:00 11.5 2 Oeste 8 Noroeste 0 -- -- 80
2018-03-28 10:00:00 6.6 3 Nordeste 7 Norte 0 -- -- 96
2018-03-28 09:00:00 4.4 0 Calma 3 Nordeste 0 -- -- 95
2018-03-28 08:00:00 4.4 0 Calma 2 Sur 0 -- -- 93
2018-03-28 07:00:00 5 0 Calma 7 Sudoeste 0 -- -- 91
2018-03-28 06:00:00 6.4 4 Sudoeste 12 Sudoeste 0 -- -- 90
2018-03-28 05:00:00 6.6 5 Nordeste 12 Norte 0 -- -- 92
2018-03-28 04:00:00 7.2 0 Calma 6 Sudoeste 0 -- -- 89
2018-03-28 03:00:00 8.2 3 Sudoeste 9 Sudoeste 0 -- -- 87
2018-03-28 02:00:00 8.7 2 Sudoeste 9 Sudoeste 0 -- -- 87
2018-03-28 01:00:00 9.5 3 Sudoeste 9 Sudoeste 0 -- -- 84
2018-03-28 00:00:00 11.2 3 Sudoeste 10 Sudoeste 0 -- -- 77
2018-03-27 23:00:00 12.8 4 Noroeste 12 Norte 0 -- -- 73
2018-03-27 22:00:00 13.4 2 Norte 9 Oeste 0 -- -- 71
2018-03-27 21:00:00 14.6 3 Norte 18 Norte 0 -- -- 66
2018-03-27 20:00:00 16.1 11 Norte 26 Noroeste 0 -- -- 60
2018-03-27 19:00:00 17.3 9 Norte 24 Norte 0 -- -- 56
2018-03-27 18:00:00 17.3 10 Norte 27 Norte 0 -- -- 58
2018-03-27 17:00:00 16.7 6 Norte 28 Norte 0 -- -- 61
2018-03-27 16:00:00 17.1 10 Norte 26 Noroeste 0 -- -- 59
2018-03-27 15:00:00 16.8 8 Norte 26 Norte 0 -- -- 61
2018-03-27 14:00:00 16.4 10 Oeste 33 Oeste 0 -- -- 63
2018-03-27 13:00:00 15.5 10 Oeste 27 Oeste 0 -- -- 64
2018-03-27 12:00:00 14.2 7 Oeste 29 Noroeste 0 -- -- 67
2018-03-27 11:00:00 11.8 8 Oeste 22 Noroeste 0 -- -- 75
2018-03-27 10:00:00 8.9 4 Oeste 11 Oeste 0 -- -- 82
2018-03-27 09:00:00 7.5 4 Oeste 11 Sudoeste 0 -- -- 85
2018-03-27 08:00:00 7.3 4 Sudoeste 10 Sudoeste 0 -- -- 83
2018-03-27 07:00:00 7.6 4 Sudoeste 9 Oeste 0 -- -- 80
2018-03-27 06:00:00 7.5 4 Oeste 9 Oeste 0 -- -- 80
2018-03-27 05:00:00 7.5 3 Sudoeste 12 Sudoeste 0 -- -- 79
2018-03-27 04:00:00 7.3 4 Oeste 11 Oeste 0 -- -- 79
2018-03-27 03:00:00 6.7 5 Sudoeste 9 Sudoeste 0 -- -- 80
2018-03-27 02:00:00 6.7 4 Sudoeste 12 Oeste 0 -- -- 78
2018-03-27 01:00:00 6.4 5 Sudoeste 12 Noroeste 0 -- -- 78
2018-03-27 00:00:00 7.4 4 Oeste 15 Norte 0 -- -- 75
2018-03-26 23:00:00 8.2 4 Oeste 17 Oeste 0 -- -- 72
2018-03-26 22:00:00 8.2 5 Oeste 17 Oeste 0 -- -- 70
2018-03-26 21:00:00 9 8 Norte 20 Norte 0 -- -- 66
2018-03-26 20:00:00 10.3 10 Norte 31 Norte 0 -- -- 60
2018-03-26 19:00:00 11.9 8 Noroeste 27 Noroeste 0 -- -- 53
2018-03-26 18:00:00 12.7 8 Norte 36 Noroeste 0 -- -- 49
2018-03-26 17:00:00 13.4 7 Noroeste 30 Noroeste 0 -- -- 49
2018-03-26 16:00:00 14.6 8 Norte 34 Noroeste 0 -- -- 43
2018-03-26 15:00:00 13.8 9 Noroeste 33 Norte 0 -- -- 45
2018-03-26 14:00:00 13.1 10 Oeste 35 Noroeste 0 -- -- 49
2018-03-26 13:00:00 11.6 9 Noroeste 44 Noroeste 0 -- -- 58
2018-03-26 12:00:00 9.4 10 Oeste 30 Noroeste 0 -- -- 70
2018-03-26 11:00:00 9.1 13 Oeste 34 Oeste 0 -- -- 76
2018-03-26 10:00:00 8.3 15 Oeste 40 Oeste 0 -- -- 79
2018-03-26 09:00:00 7 11 Oeste 31 Oeste 0 -- -- 82
2018-03-26 08:00:00 6.6 12 Oeste 30 Noroeste 0 -- -- 84
2018-03-26 07:00:00 6.7 8 Oeste 30 Oeste 0 -- -- 82
2018-03-26 06:00:00 6.6 9 Oeste 22 Oeste 0 -- -- 83
2018-03-26 05:00:00 6.5 10 Oeste 27 Oeste 0 -- -- 82
2018-03-26 04:00:00 6.8 13 Oeste 30 Oeste 0 -- -- 82
2018-03-26 03:00:00 6.3 6 Oeste 19 Oeste 0 -- -- 84
2018-03-26 02:00:00 6.3 5 Oeste 15 Oeste 0 -- -- 81
2018-03-26 01:00:00 7 6 Oeste 19 Noroeste 0 -- -- 78
2018-03-26 00:00:00 7.5 6 Oeste 15 Oeste 0 -- -- 77
2018-03-25 23:00:00 8 6 Oeste 13 Oeste 0 -- -- 74
2018-03-25 22:00:00 8.3 4 Oeste 12 Oeste 0 -- -- 72
2018-03-25 21:00:00 8.9 3 Oeste 17 Noroeste 0 -- -- 68
2018-03-25 20:00:00 10.2 8 Norte 29 Norte 0 -- -- 63
2018-03-25 19:00:00 12 7 Oeste 27 Oeste 0 -- -- 59
2018-03-25 18:00:00 12.3 9 Oeste 31 Oeste 0 -- -- 58
2018-03-25 17:00:00 13.3 6 Noroeste 30 Norte 0 -- -- 51
2018-03-25 16:00:00 12.6 8 Oeste 22 Noroeste 0 -- -- 53
2018-03-25 15:00:00 11.9 8 Oeste 26 Norte 0 -- -- 55
2018-03-25 14:00:00 11.3 9 Oeste 26 Oeste 0 -- -- 56
2018-03-25 13:00:00 11.1 8 Oeste 28 Noroeste 0 -- -- 59
2018-03-25 12:00:00 10.8 9 Oeste 25 Oeste 0 -- -- 59
2018-03-25 11:00:00 9.8 4 Oeste 15 Oeste 0 -- -- 64
2018-03-25 10:00:00 6.9 2 Oeste 8 Norte 0 -- -- 76
2018-03-25 09:00:00 5.2 0 Calma 5 Sur 0 -- -- 86
2018-03-25 08:00:00 4.8 0 Calma 6 Oeste 0 -- -- 85
2018-03-25 07:00:00 5 3 Oeste 15 Noroeste 0 -- -- 81
2018-03-25 06:00:00 4.1 3 Nordeste 12 Nordeste 0 -- -- 86
2018-03-25 05:00:00 4.4 3 Nordeste 7 Norte 0 -- -- 85
2018-03-25 03:00:00 5.2 4 Norte 12 Norte 0 -- -- 80
2018-03-25 01:00:00 5.6 0 Calma 15 Oeste 0 -- -- 79
2018-03-25 00:00:00 5.4 4 Sudoeste 11 Noroeste 0 -- -- 80
2018-03-24 23:00:00 5.6 2 Sudoeste 9 Sur 0 -- -- 81
2018-03-24 22:00:00 7.3 0 Calma 10 Noroeste 0 -- -- 75
2018-03-24 21:00:00 8.1 3 Oeste 12 Noroeste 0 -- -- 70
2018-03-24 20:00:00 9.3 4 Oeste 20 Norte 0 -- -- 65
2018-03-24 19:00:00 10.6 9 Norte 26 Oeste 0 -- -- 64
2018-03-24 18:00:00 12.3 7 Oeste 23 Oeste 0 -- -- 54
2018-03-24 17:00:00 13.4 10 Oeste 33 Oeste 0 -- -- 51
2018-03-24 16:00:00 13.7 6 Oeste 29 Oeste 0 -- -- 50
2018-03-24 15:00:00 13.2 7 Oeste 30 Oeste 0 -- -- 52
2018-03-24 14:00:00 13.2 10 Oeste 35 Noroeste 0 -- -- 50
2018-03-24 13:00:00 12.2 10 Noroeste 29 Noroeste 0 -- -- 52
2018-03-24 12:00:00 10.4 9 Norte 24 Noroeste 0 -- -- 59
2018-03-24 11:00:00 8.5 8 Noroeste 26 Oeste 0 -- -- 66
2018-03-24 10:00:00 6.7 5 Noroeste 18 Noroeste 0 -- -- 73
2018-03-24 09:00:00 4.8 7 Norte 17 Noroeste 0 -- -- 81
2018-03-24 08:00:00 4.3 4 Oeste 18 Oeste 0 -- -- 85
2018-03-24 07:00:00 4.5 7 Oeste 19 Oeste 0 -- -- 85
2018-03-24 06:00:00 4.7 7 Oeste 20 Noroeste 0 -- -- 87
2018-03-24 05:00:00 5.2 3 Norte 21 Norte 0 -- -- 85
2018-03-24 04:00:00 5.2 11 Norte 36 Noroeste 0.8 -- -- 85
2018-03-24 03:00:00 6.8 10 Norte 45 Norte 4.8 -- -- 84
2018-03-24 02:00:00 9.4 2 Sur 4 Sudoeste 1 -- -- 91
2018-03-24 01:00:00 10 0 Calma 17 Sur 1.2 -- -- 88
2018-03-24 00:00:00 10.8 12 Sudoeste 24 Sudoeste 1.2 -- -- 81
2018-03-23 23:00:00 11 4 Sur 11 Sudoeste 0.4 -- -- 83
2018-03-23 22:00:00 10.6 0 Calma 6 Sudeste 0 -- -- 83
2018-03-23 21:00:00 11.1 0 Calma 4 Este 0 -- -- 80
2018-03-23 20:00:00 12 0 Calma 4 Nordeste 0 -- -- 72
2018-03-23 19:00:00 13.7 0 Calma 6 Sudoeste 0 -- -- 66
2018-03-23 18:00:00 14.7 2 Noroeste 7 Noroeste 0 -- -- 58
2018-03-23 17:00:00 14.5 2 Oeste 12 Norte 0 -- -- 60
2018-03-23 16:00:00 14.8 8 Norte 22 Noroeste 0 -- -- 58
2018-03-23 15:00:00 14.7 8 Oeste 22 Oeste 0 -- -- 59
2018-03-23 14:00:00 15 8 Oeste 24 Oeste 0 -- -- 55
2018-03-23 13:00:00 14.2 7 Oeste 26 Noroeste 0 -- -- 56
2018-03-23 12:00:00 13.1 10 Oeste 35 Oeste 0 -- -- 52
2018-03-23 11:00:00 11.7 7 Oeste 19 Sudoeste 0 -- -- 50
2018-03-23 10:00:00 8.9 5 Oeste 16 Oeste 0 -- -- 52
2018-03-23 09:00:00 5.3 3 Sur 9 Oeste 0 -- -- 60
2018-03-23 08:00:00 2.7 6 Sudoeste 13 Sudoeste 0 -- -- 66
2018-03-23 07:00:00 1.7 3 Sudoeste 12 Oeste 0 -- -- 69
2018-03-23 06:00:00 1.8 3 Sudoeste 13 Noroeste 0 -- -- 64
2018-03-23 05:00:00 1.2 3 Sudoeste 7 Sudoeste 0 -- -- 70
2018-03-23 04:00:00 2.6 4 Sudoeste 10 Noroeste 0 -- -- 62
2018-03-23 03:00:00 4.6 4 Oeste 18 Oeste 0 -- -- 50
2018-03-23 02:00:00 4.7 4 Norte 17 Oeste 0 -- -- 48
2018-03-23 01:00:00 4.7 6 Norte 24 Norte 0 -- -- 49
2018-03-23 00:00:00 4.5 5 Este 21 Oeste 0 -- -- 52